sensor_id;sensor_type;location;lat;lon;timestamp;temperature;humidity
14188;DHT22;7175;51.978;5.330;2022-09-17T00:02:08;11.60;99.90
14188;DHT22;7175;51.978;5.330;2022-09-17T00:04:37;11.60;99.90
14188;DHT22;7175;51.978;5.330;2022-09-17T00:07:07;11.60;99.90
14188;DHT22;7175;51.978;5.330;2022-09-17T00:09:35;11.60;99.90
14188;DHT22;7175;51.978;5.330;2022-09-17T00:12:12;11.50;99.90
14188;DHT22;7175;51.978;5.330;2022-09-17T00:14:49;11.60;99.90
14188;DHT22;7175;51.978;5.330;2022-09-17T00:17:26;11.50;99.90
14188;DHT22;7175;51.978;5.330;2022-09-17T00:20:12;11.50;99.90
14188;DHT22;7175;51.978;5.330;2022-09-17T00:22:49;11.50;99.90
14188;DHT22;7175;51.978;5.330;2022-09-17T00:25:37;11.50;99.90
14188;DHT22;7175;51.978;5.330;2022-09-17T00:28:32;11.40;99.90
14188;DHT22;7175;51.978;5.330;2022-09-17T00:31:00;11.40;99.90
14188;DHT22;7175;51.978;5.330;2022-09-17T00:33:28;11.30;99.90
14188;DHT22;7175;51.978;5.330;2022-09-17T00:36:07;11.30;99.90
14188;DHT22;7175;51.978;5.330;2022-09-17T00:38:38;11.30;99.90
14188;DHT22;7175;51.978;5.330;2022-09-17T00:41:11;11.20;99.90
14188;DHT22;7175;51.978;5.330;2022-09-17T00:43:43;11.20;99.90
14188;DHT22;7175;51.978;5.330;2022-09-17T00:49:50;11.10;99.90
14188;DHT22;7175;51.978;5.330;2022-09-17T00:52:30;11.10;99.90
14188;DHT22;7175;51.978;5.330;2022-09-17T00:55:11;11.20;99.90
14188;DHT22;7175;51.978;5.330;2022-09-17T00:57:43;11.10;99.90
14188;DHT22;7175;51.978;5.330;2022-09-17T01:00:17;11.00;99.90
14188;DHT22;7175;51.978;5.330;2022-09-17T01:02:46;11.00;99.90
14188;DHT22;7175;51.978;5.330;2022-09-17T01:05:39;11.00;99.90
14188;DHT22;7175;51.978;5.330;2022-09-17T01:08:25;11.00;99.90
14188;DHT22;7175;51.978;5.330;2022-09-17T01:11:23;11.00;99.90
14188;DHT22;7175;51.978;5.330;2022-09-17T01:14:13;11.00;99.90
14188;DHT22;7175;51.978;5.330;2022-09-17T01:16:55;10.90;99.90
14188;DHT22;7175;51.978;5.330;2022-09-17T01:22:42;10.90;99.90
14188;DHT22;7175;51.978;5.330;2022-09-17T01:25:40;10.90;99.90
14188;DHT22;7175;51.978;5.330;2022-09-17T01:28:29;10.90;99.90
14188;DHT22;7175;51.978;5.330;2022-09-17T01:31:25;10.80;99.90
14188;DHT22;7175;51.978;5.330;2022-09-17T01:34:10;10.80;99.90
14188;DHT22;7175;51.978;5.330;2022-09-17T01:36:50;10.80;99.90
14188;DHT22;7175;51.978;5.330;2022-09-17T01:39:30;10.70;99.90
14188;DHT22;7175;51.978;5.330;2022-09-17T01:42:06;10.70;99.90
14188;DHT22;7175;51.978;5.330;2022-09-17T01:44:41;10.70;99.90
14188;DHT22;7175;51.978;5.330;2022-09-17T01:47:17;10.70;99.90
14188;DHT22;7175;51.978;5.330;2022-09-17T01:49:59;10.70;99.90
14188;DHT22;7175;51.978;5.330;2022-09-17T01:52:37;10.60;99.90
14188;DHT22;7175;51.978;5.330;2022-09-17T01:55:10;10.60;99.90
14188;DHT22;7175;51.978;5.330;2022-09-17T01:57:52;10.60;99.90
14188;DHT22;7175;51.978;5.330;2022-09-17T02:00:21;10.70;99.90
14188;DHT22;7175;51.978;5.330;2022-09-17T02:03:07;10.80;99.90
14188;DHT22;7175;51.978;5.330;2022-09-17T02:05:40;10.80;99.90
14188;DHT22;7175;51.978;5.330;2022-09-17T02:08:31;10.90;99.90
14188;DHT22;7175;51.978;5.330;2022-09-17T02:11:07;11.00;99.90
14188;DHT22;7175;51.978;5.330;2022-09-17T02:13:41;11.10;99.90
14188;DHT22;7175;51.978;5.330;2022-09-17T02:16:23;11.20;99.90
14188;DHT22;7175;51.978;5.330;2022-09-17T02:19:15;11.20;99.90
14188;DHT22;7175;51.978;5.330;2022-09-17T02:22:12;11.20;99.90
14188;DHT22;7175;51.978;5.330;2022-09-17T02:24:46;11.20;99.90
14188;DHT22;7175;51.978;5.330;2022-09-17T02:27:37;11.20;99.90
14188;DHT22;7175;51.978;5.330;2022-09-17T02:30:10;11.20;99.90
14188;DHT22;7175;51.978;5.330;2022-09-17T02:32:40;11.20;99.90
14188;DHT22;7175;51.978;5.330;2022-09-17T02:35:13;11.30;99.90
14188;DHT22;7175;51.978;5.330;2022-09-17T02:37:42;11.30;99.90
14188;DHT22;7175;51.978;5.330;2022-09-17T02:40:16;11.20;99.90
14188;DHT22;7175;51.978;5.330;2022-09-17T02:43:09;11.20;99.90
14188;DHT22;7175;51.978;5.330;2022-09-17T02:45:51;11.20;99.90
14188;DHT22;7175;51.978;5.330;2022-09-17T02:48:59;11.10;99.90
14188;DHT22;7175;51.978;5.330;2022-09-17T02:51:38;11.00;99.90
14188;DHT22;7175;51.978;5.330;2022-09-17T02:54:25;10.90;99.90
14188;DHT22;7175;51.978;5.330;2022-09-17T02:57:01;10.90;99.90
14188;DHT22;7175;51.978;5.330;2022-09-17T02:59:51;10.90;99.90
14188;DHT22;7175;51.978;5.330;2022-09-17T03:02:26;10.90;99.90
14188;DHT22;7175;51.978;5.330;2022-09-17T03:04:59;11.00;99.90
14188;DHT22;7175;51.978;5.330;2022-09-17T03:07:45;11.00;99.90
14188;DHT22;7175;51.978;5.330;2022-09-17T03:10:16;11.00;99.90
14188;DHT22;7175;51.978;5.330;2022-09-17T03:12:46;11.00;99.90
14188;DHT22;7175;51.978;5.330;2022-09-17T03:15:15;11.00;99.90
14188;DHT22;7175;51.978;5.330;2022-09-17T03:17:44;11.00;99.90
14188;DHT22;7175;51.978;5.330;2022-09-17T03:20:19;11.00;99.90
14188;DHT22;7175;51.978;5.330;2022-09-17T03:22:50;11.00;99.90
14188;DHT22;7175;51.978;5.330;2022-09-17T03:25:18;11.00;99.90
14188;DHT22;7175;51.978;5.330;2022-09-17T03:27:47;11.00;99.90
14188;DHT22;7175;51.978;5.330;2022-09-17T03:30:15;11.10;99.90
14188;DHT22;7175;51.978;5.330;2022-09-17T03:32:56;11.00;99.90
14188;DHT22;7175;51.978;5.330;2022-09-17T03:35:27;11.00;99.90
14188;DHT22;7175;51.978;5.330;2022-09-17T03:38:06;11.00;99.90
14188;DHT22;7175;51.978;5.330;2022-09-17T03:40:39;10.90;99.90
14188;DHT22;7175;51.978;5.330;2022-09-17T03:43:17;10.80;99.90
14188;DHT22;7175;51.978;5.330;2022-09-17T03:45:45;10.80;99.90
14188;DHT22;7175;51.978;5.330;2022-09-17T03:48:18;10.80;99.90
14188;DHT22;7175;51.978;5.330;2022-09-17T03:50:55;10.70;99.90
14188;DHT22;7175;51.978;5.330;2022-09-17T03:53:31;10.70;99.90
14188;DHT22;7175;51.978;5.330;2022-09-17T03:56:01;10.70;99.90
14188;DHT22;7175;51.978;5.330;2022-09-17T03:58:33;10.60;99.90
14188;DHT22;7175;51.978;5.330;2022-09-17T04:01:08;10.50;99.90
14188;DHT22;7175;51.978;5.330;2022-09-17T04:03:46;10.40;99.90
14188;DHT22;7175;51.978;5.330;2022-09-17T04:06:15;10.40;99.90
14188;DHT22;7175;51.978;5.330;2022-09-17T04:08:47;10.40;99.90
14188;DHT22;7175;51.978;5.330;2022-09-17T04:11:16;10.40;99.90
14188;DHT22;7175;51.978;5.330;2022-09-17T04:13:50;10.40;99.90
14188;DHT22;7175;51.978;5.330;2022-09-17T04:16:21;10.40;99.90
14188;DHT22;7175;51.978;5.330;2022-09-17T04:19:10;10.30;99.90
14188;DHT22;7175;51.978;5.330;2022-09-17T04:21:45;10.30;99.90
14188;DHT22;7175;51.978;5.330;2022-09-17T04:24:23;10.30;99.90
14188;DHT22;7175;51.978;5.330;2022-09-17T04:27:03;10.30;99.90
14188;DHT22;7175;51.978;5.330;2022-09-17T04:29:38;10.40;99.90
14188;DHT22;7175;51.978;5.330;2022-09-17T04:32:06;10.40;99.90
14188;DHT22;7175;51.978;5.330;2022-09-17T04:34:40;10.40;99.90
14188;DHT22;7175;51.978;5.330;2022-09-17T04:37:28;10.40;99.90
14188;DHT22;7175;51.978;5.330;2022-09-17T04:40:05;10.40;99.90
14188;DHT22;7175;51.978;5.330;2022-09-17T04:42:34;10.40;99.90
14188;DHT22;7175;51.978;5.330;2022-09-17T04:45:09;10.30;99.90
14188;DHT22;7175;51.978;5.330;2022-09-17T04:47:41;10.20;99.90
14188;DHT22;7175;51.978;5.330;2022-09-17T04:50:13;10.10;99.90
14188;DHT22;7175;51.978;5.330;2022-09-17T04:52:43;10.20;99.90
14188;DHT22;7175;51.978;5.330;2022-09-17T04:55:15;10.10;99.90
14188;DHT22;7175;51.978;5.330;2022-09-17T04:57:53;10.10;99.90
14188;DHT22;7175;51.978;5.330;2022-09-17T05:00:24;10.00;99.90
14188;DHT22;7175;51.978;5.330;2022-09-17T05:03:00;10.00;99.90
14188;DHT22;7175;51.978;5.330;2022-09-17T05:05:31;10.00;99.90
14188;DHT22;7175;51.978;5.330;2022-09-17T05:08:18;10.00;99.90
14188;DHT22;7175;51.978;5.330;2022-09-17T05:10:57;9.90;99.90
14188;DHT22;7175;51.978;5.330;2022-09-17T05:13:35;9.90;99.90
14188;DHT22;7175;51.978;5.330;2022-09-17T05:16:12;9.90;99.90
14188;DHT22;7175;51.978;5.330;2022-09-17T05:18:58;9.80;99.90
14188;DHT22;7175;51.978;5.330;2022-09-17T05:21:33;9.80;99.90
14188;DHT22;7175;51.978;5.330;2022-09-17T05:24:02;9.70;99.90
14188;DHT22;7175;51.978;5.330;2022-09-17T05:26:38;9.70;99.90
14188;DHT22;7175;51.978;5.330;2022-09-17T05:29:06;9.70;99.90
14188;DHT22;7175;51.978;5.330;2022-09-17T05:31:40;9.70;99.90
14188;DHT22;7175;51.978;5.330;2022-09-17T05:34:10;9.70;99.90
14188;DHT22;7175;51.978;5.330;2022-09-17T05:36:38;9.70;99.90
14188;DHT22;7175;51.978;5.330;2022-09-17T05:39:07;9.80;99.90
14188;DHT22;7175;51.978;5.330;2022-09-17T05:41:44;9.80;99.90
14188;DHT22;7175;51.978;5.330;2022-09-17T05:44:12;9.90;99.90
14188;DHT22;7175;51.978;5.330;2022-09-17T05:46:45;10.00;99.90
14188;DHT22;7175;51.978;5.330;2022-09-17T05:49:20;10.10;99.90
14188;DHT22;7175;51.978;5.330;2022-09-17T05:51:49;10.30;99.90
14188;DHT22;7175;51.978;5.330;2022-09-17T05:54:23;10.40;99.90
14188;DHT22;7175;51.978;5.330;2022-09-17T05:57:01;10.50;99.90
14188;DHT22;7175;51.978;5.330;2022-09-17T05:59:30;10.60;99.90
14188;DHT22;7175;51.978;5.330;2022-09-17T06:02:27;10.70;99.90
14188;DHT22;7175;51.978;5.330;2022-09-17T06:04:56;10.80;99.90
14188;DHT22;7175;51.978;5.330;2022-09-17T06:07:47;10.90;99.90
14188;DHT22;7175;51.978;5.330;2022-09-17T06:10:17;11.00;99.90
14188;DHT22;7175;51.978;5.330;2022-09-17T06:12:57;11.10;99.90
14188;DHT22;7175;51.978;5.330;2022-09-17T06:15:48;11.10;99.90
14188;DHT22;7175;51.978;5.330;2022-09-17T06:18:21;11.20;99.90
14188;DHT22;7175;51.978;5.330;2022-09-17T06:20:57;11.20;99.90
14188;DHT22;7175;51.978;5.330;2022-09-17T06:23:26;11.20;99.90
14188;DHT22;7175;51.978;5.330;2022-09-17T06:26:07;11.30;99.90
14188;DHT22;7175;51.978;5.330;2022-09-17T06:28:38;11.30;99.90
14188;DHT22;7175;51.978;5.330;2022-09-17T06:31:13;11.30;99.90
14188;DHT22;7175;51.978;5.330;2022-09-17T06:33:49;11.30;99.90
14188;DHT22;7175;51.978;5.330;2022-09-17T06:36:20;11.40;99.90
14188;DHT22;7175;51.978;5.330;2022-09-17T06:38:57;11.30;99.90
14188;DHT22;7175;51.978;5.330;2022-09-17T06:41:26;11.50;99.90
14188;DHT22;7175;51.978;5.330;2022-09-17T06:43:58;11.60;99.90
14188;DHT22;7175;51.978;5.330;2022-09-17T06:46:32;11.60;99.90
14188;DHT22;7175;51.978;5.330;2022-09-17T06:49:02;11.80;99.90
14188;DHT22;7175;51.978;5.330;2022-09-17T06:51:32;11.90;99.90
14188;DHT22;7175;51.978;5.330;2022-09-17T06:54:18;12.00;99.90
14188;DHT22;7175;51.978;5.330;2022-09-17T06:56:48;12.10;99.90
14188;DHT22;7175;51.978;5.330;2022-09-17T06:59:19;12.30;99.90
14188;DHT22;7175;51.978;5.330;2022-09-17T07:01:57;12.10;99.90
14188;DHT22;7175;51.978;5.330;2022-09-17T07:04:44;12.20;99.90
14188;DHT22;7175;51.978;5.330;2022-09-17T07:07:34;12.40;99.90
14188;DHT22;7175;51.978;5.330;2022-09-17T07:10:26;12.70;99.90
14188;DHT22;7175;51.978;5.330;2022-09-17T07:13:03;12.40;99.90
14188;DHT22;7175;51.978;5.330;2022-09-17T07:15:51;12.60;99.90
14188;DHT22;7175;51.978;5.330;2022-09-17T07:18:23;12.80;99.90
14188;DHT22;7175;51.978;5.330;2022-09-17T07:20:58;13.10;99.90
14188;DHT22;7175;51.978;5.330;2022-09-17T07:23:44;13.50;99.90
14188;DHT22;7175;51.978;5.330;2022-09-17T07:26:15;13.40;99.90
14188;DHT22;7175;51.978;5.330;2022-09-17T07:28:43;13.20;99.90
14188;DHT22;7175;51.978;5.330;2022-09-17T07:31:17;13.00;99.90
14188;DHT22;7175;51.978;5.330;2022-09-17T07:34:19;13.00;99.90
14188;DHT22;7175;51.978;5.330;2022-09-17T07:36:53;13.20;99.90
14188;DHT22;7175;51.978;5.330;2022-09-17T07:39:21;13.40;99.90
14188;DHT22;7175;51.978;5.330;2022-09-17T07:41:50;13.50;99.90
14188;DHT22;7175;51.978;5.330;2022-09-17T07:44:19;13.50;99.90
14188;DHT22;7175;51.978;5.330;2022-09-17T07:46:50;13.60;99.90
14188;DHT22;7175;51.978;5.330;2022-09-17T07:49:27;13.70;99.90
14188;DHT22;7175;51.978;5.330;2022-09-17T07:52:08;13.90;99.90
14188;DHT22;7175;51.978;5.330;2022-09-17T07:54:40;14.10;99.90
14188;DHT22;7175;51.978;5.330;2022-09-17T07:57:15;14.20;99.90
14188;DHT22;7175;51.978;5.330;2022-09-17T07:59:50;14.20;99.90
14188;DHT22;7175;51.978;5.330;2022-09-17T08:02:22;14.40;99.90
14188;DHT22;7175;51.978;5.330;2022-09-17T08:04:52;14.40;99.90
14188;DHT22;7175;51.978;5.330;2022-09-17T08:07:28;14.50;99.90
14188;DHT22;7175;51.978;5.330;2022-09-17T08:10:05;14.60;99.90
14188;DHT22;7175;51.978;5.330;2022-09-17T08:12:35;14.80;99.90
14188;DHT22;7175;51.978;5.330;2022-09-17T08:15:07;14.70;99.90
14188;DHT22;7175;51.978;5.330;2022-09-17T08:17:43;14.70;99.90
14188;DHT22;7175;51.978;5.330;2022-09-17T08:20:12;15.00;99.90
14188;DHT22;7175;51.978;5.330;2022-09-17T08:22:49;15.00;99.90
14188;DHT22;7175;51.978;5.330;2022-09-17T08:25:18;15.30;99.90
14188;DHT22;7175;51.978;5.330;2022-09-17T08:28:00;15.40;99.90
14188;DHT22;7175;51.978;5.330;2022-09-17T08:30:35;15.20;99.90
14188;DHT22;7175;51.978;5.330;2022-09-17T08:33:12;14.70;99.90
14188;DHT22;7175;51.978;5.330;2022-09-17T08:35:49;14.90;99.90
14188;DHT22;7175;51.978;5.330;2022-09-17T08:38:27;15.20;99.90
14188;DHT22;7175;51.978;5.330;2022-09-17T08:41:22;15.60;99.90
14188;DHT22;7175;51.978;5.330;2022-09-17T08:44:06;15.80;99.90
14188;DHT22;7175;51.978;5.330;2022-09-17T08:46:46;16.00;99.90
14188;DHT22;7175;51.978;5.330;2022-09-17T08:49:27;16.40;99.90
14188;DHT22;7175;51.978;5.330;2022-09-17T08:52:20;16.50;99.90
14188;DHT22;7175;51.978;5.330;2022-09-17T08:55:06;15.80;99.90
14188;DHT22;7175;51.978;5.330;2022-09-17T08:58:04;15.30;99.90
14188;DHT22;7175;51.978;5.330;2022-09-17T09:00:56;14.60;99.90
14188;DHT22;7175;51.978;5.330;2022-09-17T09:03:42;13.80;99.90
14188;DHT22;7175;51.978;5.330;2022-09-17T09:06:26;13.40;99.90
14188;DHT22;7175;51.978;5.330;2022-09-17T09:08:58;13.20;99.90
14188;DHT22;7175;51.978;5.330;2022-09-17T09:11:45;13.20;99.90
14188;DHT22;7175;51.978;5.330;2022-09-17T09:14:20;13.50;99.90
14188;DHT22;7175;51.978;5.330;2022-09-17T09:16:55;13.50;99.90
14188;DHT22;7175;51.978;5.330;2022-09-17T09:19:27;13.50;99.90
14188;DHT22;7175;51.978;5.330;2022-09-17T09:22:04;13.90;99.90
14188;DHT22;7175;51.978;5.330;2022-09-17T09:24:40;14.40;99.90
14188;DHT22;7175;51.978;5.330;2022-09-17T09:27:31;14.70;99.90
14188;DHT22;7175;51.978;5.330;2022-09-17T09:30:23;14.60;99.90
14188;DHT22;7175;51.978;5.330;2022-09-17T09:32:57;14.40;99.90
14188;DHT22;7175;51.978;5.330;2022-09-17T09:35:30;14.20;99.90
14188;DHT22;7175;51.978;5.330;2022-09-17T09:38:04;14.20;99.90
14188;DHT22;7175;51.978;5.330;2022-09-17T09:40:45;14.00;99.90
14188;DHT22;7175;51.978;5.330;2022-09-17T09:43:20;14.30;99.90
14188;DHT22;7175;51.978;5.330;2022-09-17T09:46:25;14.80;99.90
14188;DHT22;7175;51.978;5.330;2022-09-17T09:49:07;15.30;99.90
14188;DHT22;7175;51.978;5.330;2022-09-17T09:52:02;15.60;99.90
14188;DHT22;7175;51.978;5.330;2022-09-17T09:54:47;15.50;99.90
14188;DHT22;7175;51.978;5.330;2022-09-17T09:57:35;15.70;99.90
14188;DHT22;7175;51.978;5.330;2022-09-17T10:00:26;15.70;99.90
14188;DHT22;7175;51.978;5.330;2022-09-17T10:03:02;15.70;99.90
14188;DHT22;7175;51.978;5.330;2022-09-17T10:05:34;15.90;99.90
14188;DHT22;7175;51.978;5.330;2022-09-17T10:08:10;15.90;99.90
14188;DHT22;7175;51.978;5.330;2022-09-17T10:10:58;16.00;99.90
14188;DHT22;7175;51.978;5.330;2022-09-17T10:13:29;16.30;99.90
14188;DHT22;7175;51.978;5.330;2022-09-17T10:16:15;16.40;99.90
14188;DHT22;7175;51.978;5.330;2022-09-17T10:18:44;16.80;99.90
14188;DHT22;7175;51.978;5.330;2022-09-17T10:21:18;17.10;99.90
14188;DHT22;7175;51.978;5.330;2022-09-17T10:23:47;17.00;99.90
14188;DHT22;7175;51.978;5.330;2022-09-17T10:26:24;17.00;99.90
14188;DHT22;7175;51.978;5.330;2022-09-17T10:28:54;16.80;99.90
14188;DHT22;7175;51.978;5.330;2022-09-17T10:31:23;16.10;99.90
14188;DHT22;7175;51.978;5.330;2022-09-17T10:33:55;15.90;99.90
14188;DHT22;7175;51.978;5.330;2022-09-17T10:36:40;15.60;99.90
14188;DHT22;7175;51.978;5.330;2022-09-17T10:39:33;15.40;99.90
14188;DHT22;7175;51.978;5.330;2022-09-17T10:42:05;15.80;99.90
14188;DHT22;7175;51.978;5.330;2022-09-17T10:44:50;16.00;99.90
14188;DHT22;7175;51.978;5.330;2022-09-17T10:47:21;16.60;99.90
14188;DHT22;7175;51.978;5.330;2022-09-17T10:49:54;16.70;99.90
14188;DHT22;7175;51.978;5.330;2022-09-17T10:52:25;16.80;99.90
14188;DHT22;7175;51.978;5.330;2022-09-17T10:55:17;16.90;99.90
14188;DHT22;7175;51.978;5.330;2022-09-17T10:58:01;17.50;99.90
14188;DHT22;7175;51.978;5.330;2022-09-17T11:00:38;17.80;99.90
14188;DHT22;7175;51.978;5.330;2022-09-17T11:03:24;17.80;99.90
14188;DHT22;7175;51.978;5.330;2022-09-17T11:06:11;17.40;99.90
14188;DHT22;7175;51.978;5.330;2022-09-17T11:08:59;17.10;99.90
14188;DHT22;7175;51.978;5.330;2022-09-17T11:11:37;17.30;99.90
14188;DHT22;7175;51.978;5.330;2022-09-17T11:14:21;17.70;99.90
14188;DHT22;7175;51.978;5.330;2022-09-17T11:17:06;17.70;99.90
14188;DHT22;7175;51.978;5.330;2022-09-17T11:19:51;18.00;99.90
14188;DHT22;7175;51.978;5.330;2022-09-17T11:22:42;18.00;99.90
14188;DHT22;7175;51.978;5.330;2022-09-17T11:25:22;18.20;99.90
14188;DHT22;7175;51.978;5.330;2022-09-17T11:28:07;17.90;99.90
14188;DHT22;7175;51.978;5.330;2022-09-17T11:30:48;18.30;99.90
14188;DHT22;7175;51.978;5.330;2022-09-17T11:33:53;18.30;99.90
14188;DHT22;7175;51.978;5.330;2022-09-17T11:36:41;17.90;99.90
14188;DHT22;7175;51.978;5.330;2022-09-17T11:39:21;17.80;99.90
14188;DHT22;7175;51.978;5.330;2022-09-17T11:41:53;18.70;99.90
14188;DHT22;7175;51.978;5.330;2022-09-17T11:44:24;18.90;99.90
14188;DHT22;7175;51.978;5.330;2022-09-17T11:47:06;19.10;99.90
14188;DHT22;7175;51.978;5.330;2022-09-17T11:49:47;19.60;99.90
14188;DHT22;7175;51.978;5.330;2022-09-17T11:52:20;19.30;99.90
14188;DHT22;7175;51.978;5.330;2022-09-17T11:54:57;19.20;97.00
14188;DHT22;7175;51.978;5.330;2022-09-17T11:57:32;19.40;97.00
14188;DHT22;7175;51.978;5.330;2022-09-17T12:00:13;19.30;94.60
14188;DHT22;7175;51.978;5.330;2022-09-17T12:02:50;19.70;94.10
14188;DHT22;7175;51.978;5.330;2022-09-17T12:05:23;19.50;92.30
14188;DHT22;7175;51.978;5.330;2022-09-17T12:07:55;19.60;88.90
14188;DHT22;7175;51.978;5.330;2022-09-17T12:10:36;19.90;91.00
14188;DHT22;7175;51.978;5.330;2022-09-17T12:13:17;20.20;89.90
14188;DHT22;7175;51.978;5.330;2022-09-17T12:15:48;19.10;91.40
14188;DHT22;7175;51.978;5.330;2022-09-17T12:18:30;18.30;93.50
14188;DHT22;7175;51.978;5.330;2022-09-17T12:21:04;18.90;93.90
14188;DHT22;7175;51.978;5.330;2022-09-17T12:23:37;19.10;93.70
14188;DHT22;7175;51.978;5.330;2022-09-17T12:26:15;18.50;93.60
14188;DHT22;7175;51.978;5.330;2022-09-17T12:28:55;18.40;96.30
14188;DHT22;7175;51.978;5.330;2022-09-17T12:31:33;17.90;98.00
14188;DHT22;7175;51.978;5.330;2022-09-17T12:34:22;17.60;99.90
14188;DHT22;7175;51.978;5.330;2022-09-17T12:37:07;17.00;99.90
14188;DHT22;7175;51.978;5.330;2022-09-17T12:40:07;17.30;99.90
14188;DHT22;7175;51.978;5.330;2022-09-17T12:42:56;17.80;99.90
14188;DHT22;7175;51.978;5.330;2022-09-17T12:45:45;18.50;99.90
14188;DHT22;7175;51.978;5.330;2022-09-17T12:48:43;18.60;99.60
14188;DHT22;7175;51.978;5.330;2022-09-17T12:51:33;18.70;97.70
14188;DHT22;7175;51.978;5.330;2022-09-17T12:54:23;18.80;98.10
14188;DHT22;7175;51.978;5.330;2022-09-17T12:57:05;19.20;97.30
14188;DHT22;7175;51.978;5.330;2022-09-17T12:59:43;20.00;97.90
14188;DHT22;7175;51.978;5.330;2022-09-17T13:02:20;20.10;95.00
14188;DHT22;7175;51.978;5.330;2022-09-17T13:08:16;19.00;94.30
14188;DHT22;7175;51.978;5.330;2022-09-17T13:11:10;18.60;97.00
14188;DHT22;7175;51.978;5.330;2022-09-17T13:13:47;18.30;96.80
14188;DHT22;7175;51.978;5.330;2022-09-17T13:16:20;18.90;96.00
14188;DHT22;7175;51.978;5.330;2022-09-17T13:18:55;19.00;93.40
14188;DHT22;7175;51.978;5.330;2022-09-17T13:21:50;19.20;93.30
14188;DHT22;7175;51.978;5.330;2022-09-17T13:24:23;19.70;93.70
14188;DHT22;7175;51.978;5.330;2022-09-17T13:26:53;19.60;91.30
14188;DHT22;7175;51.978;5.330;2022-09-17T13:29:56;19.30;90.40
14188;DHT22;7175;51.978;5.330;2022-09-17T13:33:00;19.10;90.50
14188;DHT22;7175;51.978;5.330;2022-09-17T13:35:48;18.80;90.40
14188;DHT22;7175;51.978;5.330;2022-09-17T13:38:21;19.00;91.30
14188;DHT22;7175;51.978;5.330;2022-09-17T13:41:20;18.30;92.50
14188;DHT22;7175;51.978;5.330;2022-09-17T13:43:56;18.20;92.00
14188;DHT22;7175;51.978;5.330;2022-09-17T13:46:25;18.50;90.60
14188;DHT22;7175;51.978;5.330;2022-09-17T13:48:59;19.00;90.70
14188;DHT22;7175;51.978;5.330;2022-09-17T13:51:52;19.20;87.10
14188;DHT22;7175;51.978;5.330;2022-09-17T13:54:22;19.30;86.50
14188;DHT22;7175;51.978;5.330;2022-09-17T13:57:11;19.60;85.90
14188;DHT22;7175;51.978;5.330;2022-09-17T13:59:52;19.80;83.90
14188;DHT22;7175;51.978;5.330;2022-09-17T14:02:33;19.80;87.90
14188;DHT22;7175;51.978;5.330;2022-09-17T14:05:38;19.80;87.00
14188;DHT22;7175;51.978;5.330;2022-09-17T14:08:25;19.80;83.30
14188;DHT22;7175;51.978;5.330;2022-09-17T14:10:58;19.70;87.80
14188;DHT22;7175;51.978;5.330;2022-09-17T14:13:44;19.20;89.00
14188;DHT22;7175;51.978;5.330;2022-09-17T14:16:32;18.70;89.10
14188;DHT22;7175;51.978;5.330;2022-09-17T14:19:24;18.30;89.30
14188;DHT22;7175;51.978;5.330;2022-09-17T14:22:10;18.00;90.80
14188;DHT22;7175;51.978;5.330;2022-09-17T14:24:46;18.00;91.00
14188;DHT22;7175;51.978;5.330;2022-09-17T14:27:42;17.90;91.40
14188;DHT22;7175;51.978;5.330;2022-09-17T14:30:18;18.00;91.20
14188;DHT22;7175;51.978;5.330;2022-09-17T14:32:53;17.80;91.20
14188;DHT22;7175;51.978;5.330;2022-09-17T14:35:32;17.70;91.50
14188;DHT22;7175;51.978;5.330;2022-09-17T14:38:10;17.70;93.30
14188;DHT22;7175;51.978;5.330;2022-09-17T14:40:44;17.10;94.70
14188;DHT22;7175;51.978;5.330;2022-09-17T14:43:18;17.00;96.80
14188;DHT22;7175;51.978;5.330;2022-09-17T14:45:51;16.80;97.20
14188;DHT22;7175;51.978;5.330;2022-09-17T14:48:28;16.90;97.10
14188;DHT22;7175;51.978;5.330;2022-09-17T14:54:15;17.00;98.80
14188;DHT22;7175;51.978;5.330;2022-09-17T14:56:52;16.90;98.50
14188;DHT22;7175;51.978;5.330;2022-09-17T14:59:27;16.80;99.90
14188;DHT22;7175;51.978;5.330;2022-09-17T15:02:34;16.50;99.90
14188;DHT22;7175;51.978;5.330;2022-09-17T15:05:21;16.30;99.90
14188;DHT22;7175;51.978;5.330;2022-09-17T15:08:12;16.30;99.90
14188;DHT22;7175;51.978;5.330;2022-09-17T15:11:09;16.20;99.90
14188;DHT22;7175;51.978;5.330;2022-09-17T15:13:41;16.10;99.90
14188;DHT22;7175;51.978;5.330;2022-09-17T15:16:19;16.00;99.90
14188;DHT22;7175;51.978;5.330;2022-09-17T15:19:11;16.00;99.90
14188;DHT22;7175;51.978;5.330;2022-09-17T15:21:44;16.00;99.90
14188;DHT22;7175;51.978;5.330;2022-09-17T15:24:32;16.00;99.90
14188;DHT22;7175;51.978;5.330;2022-09-17T15:27:11;15.90;99.90
14188;DHT22;7175;51.978;5.330;2022-09-17T15:29:44;15.90;99.90
14188;DHT22;7175;51.978;5.330;2022-09-17T15:32:32;16.00;99.90
14188;DHT22;7175;51.978;5.330;2022-09-17T15:35:25;16.00;97.90
14188;DHT22;7175;51.978;5.330;2022-09-17T15:37:59;15.90;97.50
14188;DHT22;7175;51.978;5.330;2022-09-17T15:40:49;15.90;97.50
14188;DHT22;7175;51.978;5.330;2022-09-17T15:43:25;15.90;96.30
14188;DHT22;7175;51.978;5.330;2022-09-17T15:45:55;16.00;97.20
14188;DHT22;7175;51.978;5.330;2022-09-17T15:48:35;16.00;97.00
14188;DHT22;7175;51.978;5.330;2022-09-17T15:51:23;16.00;96.90
14188;DHT22;7175;51.978;5.330;2022-09-17T15:53:56;16.00;96.80
14188;DHT22;7175;51.978;5.330;2022-09-17T15:56:27;16.00;97.00
14188;DHT22;7175;51.978;5.330;2022-09-17T15:59:04;16.00;96.90
14188;DHT22;7175;51.978;5.330;2022-09-17T16:01:57;16.00;96.70
14188;DHT22;7175;51.978;5.330;2022-09-17T16:04:35;16.00;97.50
14188;DHT22;7175;51.978;5.330;2022-09-17T16:07:36;16.00;97.90
14188;DHT22;7175;51.978;5.330;2022-09-17T16:10:06;15.90;96.80
14188;DHT22;7175;51.978;5.330;2022-09-17T16:12:39;15.80;97.60
14188;DHT22;7175;51.978;5.330;2022-09-17T16:15:08;15.70;96.20
14188;DHT22;7175;51.978;5.330;2022-09-17T16:17:46;15.70;96.10
14188;DHT22;7175;51.978;5.330;2022-09-17T16:20:28;15.60;96.00
14188;DHT22;7175;51.978;5.330;2022-09-17T16:23:16;15.50;97.90
14188;DHT22;7175;51.978;5.330;2022-09-17T16:25:48;15.50;97.60
14188;DHT22;7175;51.978;5.330;2022-09-17T16:28:18;15.40;98.00
14188;DHT22;7175;51.978;5.330;2022-09-17T16:30:50;15.40;97.60
14188;DHT22;7175;51.978;5.330;2022-09-17T16:33:22;15.40;98.10
14188;DHT22;7175;51.978;5.330;2022-09-17T16:36:14;15.30;98.00
14188;DHT22;7175;51.978;5.330;2022-09-17T16:38:50;15.30;97.00
14188;DHT22;7175;51.978;5.330;2022-09-17T16:41:25;15.30;97.30
14188;DHT22;7175;51.978;5.330;2022-09-17T16:43:55;15.20;98.00
14188;DHT22;7175;51.978;5.330;2022-09-17T16:46:24;15.10;97.60
14188;DHT22;7175;51.978;5.330;2022-09-17T16:48:53;15.10;97.90
14188;DHT22;7175;51.978;5.330;2022-09-17T16:51:23;15.00;99.90
14188;DHT22;7175;51.978;5.330;2022-09-17T16:53:53;14.80;99.90
14188;DHT22;7175;51.978;5.330;2022-09-17T16:56:24;14.60;99.90
14188;DHT22;7175;51.978;5.330;2022-09-17T16:58:56;14.40;99.90
14188;DHT22;7175;51.978;5.330;2022-09-17T17:01:28;13.90;99.90
14188;DHT22;7175;51.978;5.330;2022-09-17T17:03:59;13.80;99.90
14188;DHT22;7175;51.978;5.330;2022-09-17T17:06:39;13.70;99.90
14188;DHT22;7175;51.978;5.330;2022-09-17T17:09:10;13.50;99.90
14188;DHT22;7175;51.978;5.330;2022-09-17T17:12:10;13.30;99.90
14188;DHT22;7175;51.978;5.330;2022-09-17T17:14:46;13.30;99.90